sensor_id;sensor_type;location;lat;lon;timestamp;temperature;humidity
14517;DHT22;7344;50.864;4.362;2023-12-04T00:02:14;4.00;99.90
14517;DHT22;7344;50.864;4.362;2023-12-04T00:04:40;3.90;99.90
14517;DHT22;7344;50.864;4.362;2023-12-04T00:07:05;3.90;99.90
14517;DHT22;7344;50.864;4.362;2023-12-04T00:09:31;3.90;99.90
14517;DHT22;7344;50.864;4.362;2023-12-04T00:11:56;3.90;99.90
14517;DHT22;7344;50.864;4.362;2023-12-04T00:14:22;3.90;99.90
14517;DHT22;7344;50.864;4.362;2023-12-04T00:16:48;3.90;99.90
14517;DHT22;7344;50.864;4.362;2023-12-04T00:19:13;3.90;99.90
14517;DHT22;7344;50.864;4.362;2023-12-04T00:21:39;4.00;99.90
14517;DHT22;7344;50.864;4.362;2023-12-04T00:24:05;4.00;99.90
14517;DHT22;7344;50.864;4.362;2023-12-04T00:26:30;3.90;99.90
14517;DHT22;7344;50.864;4.362;2023-12-04T00:28:56;4.00;99.90
14517;DHT22;7344;50.864;4.362;2023-12-04T00:31:22;4.00;99.90
14517;DHT22;7344;50.864;4.362;2023-12-04T00:33:47;4.00;99.90
14517;DHT22;7344;50.864;4.362;2023-12-04T00:36:13;4.00;99.90
14517;DHT22;7344;50.864;4.362;2023-12-04T00:38:39;4.00;99.90
14517;DHT22;7344;50.864;4.362;2023-12-04T00:41:05;3.90;99.90
14517;DHT22;7344;50.864;4.362;2023-12-04T00:43:31;4.00;99.90
14517;DHT22;7344;50.864;4.362;2023-12-04T00:45:56;4.10;99.90
14517;DHT22;7344;50.864;4.362;2023-12-04T00:48:22;4.00;99.90
14517;DHT22;7344;50.864;4.362;2023-12-04T00:50:47;4.10;99.90
14517;DHT22;7344;50.864;4.362;2023-12-04T00:53:13;4.10;99.90
14517;DHT22;7344;50.864;4.362;2023-12-04T00:55:39;4.10;99.90
14517;DHT22;7344;50.864;4.362;2023-12-04T00:58:05;4.10;99.90
14517;DHT22;7344;50.864;4.362;2023-12-04T01:00:30;4.00;99.90
14517;DHT22;7344;50.864;4.362;2023-12-04T01:02:56;4.00;99.90
14517;DHT22;7344;50.864;4.362;2023-12-04T01:05:22;4.10;99.90
14517;DHT22;7344;50.864;4.362;2023-12-04T01:07:47;4.10;99.90
14517;DHT22;7344;50.864;4.362;2023-12-04T01:10:13;4.10;99.90
14517;DHT22;7344;50.864;4.362;2023-12-04T01:12:38;4.10;99.90
14517;DHT22;7344;50.864;4.362;2023-12-04T01:15:04;4.10;99.90
14517;DHT22;7344;50.864;4.362;2023-12-04T01:17:30;4.10;99.90
14517;DHT22;7344;50.864;4.362;2023-12-04T01:19:55;4.10;99.90
14517;DHT22;7344;50.864;4.362;2023-12-04T01:22:22;4.20;99.90
14517;DHT22;7344;50.864;4.362;2023-12-04T01:24:48;4.20;99.90
14517;DHT22;7344;50.864;4.362;2023-12-04T01:27:14;4.20;99.90
14517;DHT22;7344;50.864;4.362;2023-12-04T01:29:39;4.30;99.90
14517;DHT22;7344;50.864;4.362;2023-12-04T01:32:05;4.20;99.90
14517;DHT22;7344;50.864;4.362;2023-12-04T01:34:31;4.20;99.90
14517;DHT22;7344;50.864;4.362;2023-12-04T01:36:56;4.20;99.90
14517;DHT22;7344;50.864;4.362;2023-12-04T01:39:22;4.20;99.90
14517;DHT22;7344;50.864;4.362;2023-12-04T01:41:47;4.20;99.90
14517;DHT22;7344;50.864;4.362;2023-12-04T01:44:13;4.20;99.90
14517;DHT22;7344;50.864;4.362;2023-12-04T01:46:39;4.20;99.90
14517;DHT22;7344;50.864;4.362;2023-12-04T01:49:04;4.20;99.90
14517;DHT22;7344;50.864;4.362;2023-12-04T01:51:30;4.20;99.90
14517;DHT22;7344;50.864;4.362;2023-12-04T01:53:59;4.20;99.90
14517;DHT22;7344;50.864;4.362;2023-12-04T01:56:25;4.20;99.90
14517;DHT22;7344;50.864;4.362;2023-12-04T01:58:52;4.30;99.40
14517;DHT22;7344;50.864;4.362;2023-12-04T02:01:19;4.30;99.70
14517;DHT22;7344;50.864;4.362;2023-12-04T02:03:45;4.30;99.50
14517;DHT22;7344;50.864;4.362;2023-12-04T02:06:11;4.30;99.40
14517;DHT22;7344;50.864;4.362;2023-12-04T02:08:37;4.40;99.80
14517;DHT22;7344;50.864;4.362;2023-12-04T02:11:04;4.40;99.50
14517;DHT22;7344;50.864;4.362;2023-12-04T02:13:30;4.40;99.00
14517;DHT22;7344;50.864;4.362;2023-12-04T02:15:58;4.40;99.30
14517;DHT22;7344;50.864;4.362;2023-12-04T02:18:26;4.50;99.00
14517;DHT22;7344;50.864;4.362;2023-12-04T02:20:52;4.50;98.60
14517;DHT22;7344;50.864;4.362;2023-12-04T02:23:18;4.50;98.40
14517;DHT22;7344;50.864;4.362;2023-12-04T02:25:44;4.50;98.80
14517;DHT22;7344;50.864;4.362;2023-12-04T02:28:12;4.40;98.70
14517;DHT22;7344;50.864;4.362;2023-12-04T02:30:41;4.40;98.70
14517;DHT22;7344;50.864;4.362;2023-12-04T02:33:10;4.40;98.70
14517;DHT22;7344;50.864;4.362;2023-12-04T02:35:37;4.40;98.00
14517;DHT22;7344;50.864;4.362;2023-12-04T02:38:05;4.50;98.90
14517;DHT22;7344;50.864;4.362;2023-12-04T02:40:32;4.30;98.80
14517;DHT22;7344;50.864;4.362;2023-12-04T02:42:57;4.30;98.80
14517;DHT22;7344;50.864;4.362;2023-12-04T02:45:23;4.30;99.20
14517;DHT22;7344;50.864;4.362;2023-12-04T02:47:49;4.20;99.50
14517;DHT22;7344;50.864;4.362;2023-12-04T02:50:14;4.20;99.40
14517;DHT22;7344;50.864;4.362;2023-12-04T02:52:40;4.10;99.30
14517;DHT22;7344;50.864;4.362;2023-12-04T02:55:06;4.10;99.10
14517;DHT22;7344;50.864;4.362;2023-12-04T02:57:31;4.10;99.80
14517;DHT22;7344;50.864;4.362;2023-12-04T02:59:57;4.10;99.30
14517;DHT22;7344;50.864;4.362;2023-12-04T03:02:22;4.10;99.20
14517;DHT22;7344;50.864;4.362;2023-12-04T03:04:48;4.10;99.60
14517;DHT22;7344;50.864;4.362;2023-12-04T03:07:14;4.20;99.40
14517;DHT22;7344;50.864;4.362;2023-12-04T03:09:39;4.20;99.50
14517;DHT22;7344;50.864;4.362;2023-12-04T03:12:05;4.10;99.30
14517;DHT22;7344;50.864;4.362;2023-12-04T03:14:31;4.20;99.40
14517;DHT22;7344;50.864;4.362;2023-12-04T03:16:56;4.20;99.40
14517;DHT22;7344;50.864;4.362;2023-12-04T03:19:22;4.20;99.60
14517;DHT22;7344;50.864;4.362;2023-12-04T03:21:48;4.20;99.40
14517;DHT22;7344;50.864;4.362;2023-12-04T03:24:13;4.30;99.30
14517;DHT22;7344;50.864;4.362;2023-12-04T03:26:40;4.30;99.10
14517;DHT22;7344;50.864;4.362;2023-12-04T03:29:05;4.30;98.80
14517;DHT22;7344;50.864;4.362;2023-12-04T03:31:31;4.30;99.10
14517;DHT22;7344;50.864;4.362;2023-12-04T03:33:57;4.30;99.20
14517;DHT22;7344;50.864;4.362;2023-12-04T03:36:22;4.30;99.20
14517;DHT22;7344;50.864;4.362;2023-12-04T03:38:48;4.20;99.10
14517;DHT22;7344;50.864;4.362;2023-12-04T03:41:14;4.20;99.50
14517;DHT22;7344;50.864;4.362;2023-12-04T03:43:40;4.30;99.90
14517;DHT22;7344;50.864;4.362;2023-12-04T03:46:06;4.30;99.60
14517;DHT22;7344;50.864;4.362;2023-12-04T03:48:32;4.30;99.60
14517;DHT22;7344;50.864;4.362;2023-12-04T03:50:57;4.20;99.80
14517;DHT22;7344;50.864;4.362;2023-12-04T03:53:23;4.20;99.50
14517;DHT22;7344;50.864;4.362;2023-12-04T03:55:49;4.30;99.30
14517;DHT22;7344;50.864;4.362;2023-12-04T03:58:14;4.30;99.90
14517;DHT22;7344;50.864;4.362;2023-12-04T04:00:40;4.30;99.50
14517;DHT22;7344;50.864;4.362;2023-12-04T04:03:11;4.30;99.40
14517;DHT22;7344;50.864;4.362;2023-12-04T04:05:37;4.20;99.60
14517;DHT22;7344;50.864;4.362;2023-12-04T04:08:03;4.20;99.50
14517;DHT22;7344;50.864;4.362;2023-12-04T04:10:28;4.20;99.10
14517;DHT22;7344;50.864;4.362;2023-12-04T04:12:54;4.20;99.50
14517;DHT22;7344;50.864;4.362;2023-12-04T04:15:20;4.10;99.20
14517;DHT22;7344;50.864;4.362;2023-12-04T04:17:45;4.20;99.40
14517;DHT22;7344;50.864;4.362;2023-12-04T04:20:11;4.10;99.20
14517;DHT22;7344;50.864;4.362;2023-12-04T04:22:37;4.20;99.10
14517;DHT22;7344;50.864;4.362;2023-12-04T04:25:06;4.20;98.40
14517;DHT22;7344;50.864;4.362;2023-12-04T04:27:32;4.30;98.20
14517;DHT22;7344;50.864;4.362;2023-12-04T04:29:58;4.30;98.10
14517;DHT22;7344;50.864;4.362;2023-12-04T04:32:23;4.40;98.10
14517;DHT22;7344;50.864;4.362;2023-12-04T04:34:49;4.40;98.30
14517;DHT22;7344;50.864;4.362;2023-12-04T04:37:15;4.40;98.20
14517;DHT22;7344;50.864;4.362;2023-12-04T04:39:41;4.40;98.50
14517;DHT22;7344;50.864;4.362;2023-12-04T04:42:06;4.40;97.70
14517;DHT22;7344;50.864;4.362;2023-12-04T04:44:32;4.50;99.00
14517;DHT22;7344;50.864;4.362;2023-12-04T04:46:57;4.50;97.20
14517;DHT22;7344;50.864;4.362;2023-12-04T04:49:23;4.40;97.80
14517;DHT22;7344;50.864;4.362;2023-12-04T04:51:49;4.40;97.60
14517;DHT22;7344;50.864;4.362;2023-12-04T04:54:14;4.50;97.10
14517;DHT22;7344;50.864;4.362;2023-12-04T04:56:40;4.50;96.50
14517;DHT22;7344;50.864;4.362;2023-12-04T04:59:05;4.60;96.20
14517;DHT22;7344;50.864;4.362;2023-12-04T05:01:31;4.60;96.60
14517;DHT22;7344;50.864;4.362;2023-12-04T05:03:57;4.60;95.80
14517;DHT22;7344;50.864;4.362;2023-12-04T05:06:22;4.70;95.30
14517;DHT22;7344;50.864;4.362;2023-12-04T05:08:49;4.70;95.00
14517;DHT22;7344;50.864;4.362;2023-12-04T05:11:17;4.70;94.50
14517;DHT22;7344;50.864;4.362;2023-12-04T05:13:44;4.80;94.40
14517;DHT22;7344;50.864;4.362;2023-12-04T05:16:10;4.70;94.00
14517;DHT22;7344;50.864;4.362;2023-12-04T05:18:35;4.80;95.00
14517;DHT22;7344;50.864;4.362;2023-12-04T05:21:01;4.80;94.00
14517;DHT22;7344;50.864;4.362;2023-12-04T05:23:27;4.80;94.00
14517;DHT22;7344;50.864;4.362;2023-12-04T05:25:52;4.90;93.50
14517;DHT22;7344;50.864;4.362;2023-12-04T05:28:18;4.90;93.90
14517;DHT22;7344;50.864;4.362;2023-12-04T05:30:43;4.80;93.70
14517;DHT22;7344;50.864;4.362;2023-12-04T05:33:09;4.80;93.80
14517;DHT22;7344;50.864;4.362;2023-12-04T05:35:35;4.70;93.80
14517;DHT22;7344;50.864;4.362;2023-12-04T05:38:01;4.70;93.60
14517;DHT22;7344;50.864;4.362;2023-12-04T05:40:27;4.70;93.40
14517;DHT22;7344;50.864;4.362;2023-12-04T05:42:53;4.70;93.50
14517;DHT22;7344;50.864;4.362;2023-12-04T05:45:18;4.80;93.80
14517;DHT22;7344;50.864;4.362;2023-12-04T05:47:44;4.80;93.80
14517;DHT22;7344;50.864;4.362;2023-12-04T05:50:09;4.80;94.50
14517;DHT22;7344;50.864;4.362;2023-12-04T05:52:35;4.90;93.80
14517;DHT22;7344;50.864;4.362;2023-12-04T05:55:01;4.80;93.50
14517;DHT22;7344;50.864;4.362;2023-12-04T05:57:26;4.70;93.60
14517;DHT22;7344;50.864;4.362;2023-12-04T05:59:52;4.70;94.20
14517;DHT22;7344;50.864;4.362;2023-12-04T06:02:17;4.70;93.80
14517;DHT22;7344;50.864;4.362;2023-12-04T06:04:43;4.70;94.00
14517;DHT22;7344;50.864;4.362;2023-12-04T06:07:09;4.70;94.20
14517;DHT22;7344;50.864;4.362;2023-12-04T06:09:34;4.70;94.30
14517;DHT22;7344;50.864;4.362;2023-12-04T06:12:02;4.70;94.50
14517;DHT22;7344;50.864;4.362;2023-12-04T06:14:33;4.60;94.70
14517;DHT22;7344;50.864;4.362;2023-12-04T06:16:59;4.60;94.80
14517;DHT22;7344;50.864;4.362;2023-12-04T06:19:25;4.60;95.10
14517;DHT22;7344;50.864;4.362;2023-12-04T06:21:50;4.50;94.80
14517;DHT22;7344;50.864;4.362;2023-12-04T06:24:18;4.50;95.20
14517;DHT22;7344;50.864;4.362;2023-12-04T06:26:44;4.50;95.20
14517;DHT22;7344;50.864;4.362;2023-12-04T06:29:12;4.50;94.80
14517;DHT22;7344;50.864;4.362;2023-12-04T06:31:38;4.50;94.90
14517;DHT22;7344;50.864;4.362;2023-12-04T06:34:04;4.50;94.80
14517;DHT22;7344;50.864;4.362;2023-12-04T06:36:32;4.50;94.90
14517;DHT22;7344;50.864;4.362;2023-12-04T06:39:00;4.50;95.20
14517;DHT22;7344;50.864;4.362;2023-12-04T06:41:27;4.50;95.40
14517;DHT22;7344;50.864;4.362;2023-12-04T06:43:53;4.60;95.20
14517;DHT22;7344;50.864;4.362;2023-12-04T06:46:20;4.60;95.30
14517;DHT22;7344;50.864;4.362;2023-12-04T06:48:47;4.70;95.50
14517;DHT22;7344;50.864;4.362;2023-12-04T06:51:13;4.60;95.50
14517;DHT22;7344;50.864;4.362;2023-12-04T06:53:39;4.70;95.50
14517;DHT22;7344;50.864;4.362;2023-12-04T06:56:05;4.70;96.10
14517;DHT22;7344;50.864;4.362;2023-12-04T06:58:30;4.70;95.50
14517;DHT22;7344;50.864;4.362;2023-12-04T07:00:56;4.70;95.50
14517;DHT22;7344;50.864;4.362;2023-12-04T07:03:22;4.60;96.30
14517;DHT22;7344;50.864;4.362;2023-12-04T07:05:47;4.70;96.00
14517;DHT22;7344;50.864;4.362;2023-12-04T07:08:13;4.70;96.10
14517;DHT22;7344;50.864;4.362;2023-12-04T07:10:38;4.70;96.30
14517;DHT22;7344;50.864;4.362;2023-12-04T07:13:05;4.60;96.60
14517;DHT22;7344;50.864;4.362;2023-12-04T07:15:31;4.60;96.40
14517;DHT22;7344;50.864;4.362;2023-12-04T07:17:56;4.60;96.80
14517;DHT22;7344;50.864;4.362;2023-12-04T07:20:22;4.70;96.80
14517;DHT22;7344;50.864;4.362;2023-12-04T07:22:49;4.70;96.90
14517;DHT22;7344;50.864;4.362;2023-12-04T07:25:15;4.70;97.20
14517;DHT22;7344;50.864;4.362;2023-12-04T07:27:41;4.70;97.20
14517;DHT22;7344;50.864;4.362;2023-12-04T07:30:07;4.70;97.40
14517;DHT22;7344;50.864;4.362;2023-12-04T07:32:33;4.60;97.40
14517;DHT22;7344;50.864;4.362;2023-12-04T07:35:00;4.60;97.50
14517;DHT22;7344;50.864;4.362;2023-12-04T07:37:26;4.50;98.20
14517;DHT22;7344;50.864;4.362;2023-12-04T07:39:51;4.50;98.50
14517;DHT22;7344;50.864;4.362;2023-12-04T07:42:17;4.50;98.70
14517;DHT22;7344;50.864;4.362;2023-12-04T07:44:43;4.50;98.50
14517;DHT22;7344;50.864;4.362;2023-12-04T07:47:08;4.50;98.60
14517;DHT22;7344;50.864;4.362;2023-12-04T07:49:34;4.50;99.20
14517;DHT22;7344;50.864;4.362;2023-12-04T07:51:59;4.50;99.40
14517;DHT22;7344;50.864;4.362;2023-12-04T07:54:25;4.50;99.50
14517;DHT22;7344;50.864;4.362;2023-12-04T07:56:52;4.40;99.80
14517;DHT22;7344;50.864;4.362;2023-12-04T07:59:18;4.40;99.90
14517;DHT22;7344;50.864;4.362;2023-12-04T08:01:45;4.40;99.90
14517;DHT22;7344;50.864;4.362;2023-12-04T08:04:10;4.40;99.90
14517;DHT22;7344;50.864;4.362;2023-12-04T08:06:36;4.40;99.90
14517;DHT22;7344;50.864;4.362;2023-12-04T08:09:02;4.40;99.90
14517;DHT22;7344;50.864;4.362;2023-12-04T08:11:28;4.40;99.90
14517;DHT22;7344;50.864;4.362;2023-12-04T08:13:53;4.40;99.90
14517;DHT22;7344;50.864;4.362;2023-12-04T08:16:19;4.40;99.90
14517;DHT22;7344;50.864;4.362;2023-12-04T08:18:45;4.40;99.90
14517;DHT22;7344;50.864;4.362;2023-12-04T08:21:11;4.30;99.90
14517;DHT22;7344;50.864;4.362;2023-12-04T08:23:37;4.40;99.90
14517;DHT22;7344;50.864;4.362;2023-12-04T08:26:03;4.30;99.90
14517;DHT22;7344;50.864;4.362;2023-12-04T08:28:29;4.30;99.90
14517;DHT22;7344;50.864;4.362;2023-12-04T08:30:54;4.30;99.90
14517;DHT22;7344;50.864;4.362;2023-12-04T08:33:20;4.40;99.90
14517;DHT22;7344;50.864;4.362;2023-12-04T08:35:46;4.30;99.90
14517;DHT22;7344;50.864;4.362;2023-12-04T08:38:12;4.40;99.90
14517;DHT22;7344;50.864;4.362;2023-12-04T08:40:38;4.40;99.90
14517;DHT22;7344;50.864;4.362;2023-12-04T08:43:04;4.30;99.90
14517;DHT22;7344;50.864;4.362;2023-12-04T08:45:29;4.30;99.90
14517;DHT22;7344;50.864;4.362;2023-12-04T08:47:55;4.20;99.90
14517;DHT22;7344;50.864;4.362;2023-12-04T08:50:21;4.20;99.90
14517;DHT22;7344;50.864;4.362;2023-12-04T08:52:46;4.20;99.90
14517;DHT22;7344;50.864;4.362;2023-12-04T08:55:12;4.20;99.90
14517;DHT22;7344;50.864;4.362;2023-12-04T08:57:38;4.20;99.90
14517;DHT22;7344;50.864;4.362;2023-12-04T09:00:04;4.20;99.90
14517;DHT22;7344;50.864;4.362;2023-12-04T09:02:30;4.20;99.90
14517;DHT22;7344;50.864;4.362;2023-12-04T09:04:56;4.20;99.90
14517;DHT22;7344;50.864;4.362;2023-12-04T09:07:22;4.10;99.90
14517;DHT22;7344;50.864;4.362;2023-12-04T09:09:47;4.10;99.90
14517;DHT22;7344;50.864;4.362;2023-12-04T09:12:13;4.10;99.90
14517;DHT22;7344;50.864;4.362;2023-12-04T09:14:39;4.10;99.90
14517;DHT22;7344;50.864;4.362;2023-12-04T09:17:05;4.10;99.90
14517;DHT22;7344;50.864;4.362;2023-12-04T09:19:31;4.10;99.90
14517;DHT22;7344;50.864;4.362;2023-12-04T09:21:57;4.20;99.90
14517;DHT22;7344;50.864;4.362;2023-12-04T09:24:23;4.20;99.90
14517;DHT22;7344;50.864;4.362;2023-12-04T09:26:49;4.20;99.90
14517;DHT22;7344;50.864;4.362;2023-12-04T09:29:15;4.10;99.90
14517;DHT22;7344;50.864;4.362;2023-12-04T09:31:42;4.20;99.90
14517;DHT22;7344;50.864;4.362;2023-12-04T09:34:08;4.20;99.90
14517;DHT22;7344;50.864;4.362;2023-12-04T09:36:34;4.20;99.90
14517;DHT22;7344;50.864;4.362;2023-12-04T09:39:00;4.10;99.90
14517;DHT22;7344;50.864;4.362;2023-12-04T09:41:26;4.00;99.90
14517;DHT22;7344;50.864;4.362;2023-12-04T09:43:52;3.90;99.90
14517;DHT22;7344;50.864;4.362;2023-12-04T09:46:18;3.80;99.90
14517;DHT22;7344;50.864;4.362;2023-12-04T09:48:44;3.80;99.90
14517;DHT22;7344;50.864;4.362;2023-12-04T09:51:10;3.70;99.90
14517;DHT22;7344;50.864;4.362;2023-12-04T09:53:36;3.70;99.90
14517;DHT22;7344;50.864;4.362;2023-12-04T09:56:07;3.60;99.90
14517;DHT22;7344;50.864;4.362;2023-12-04T09:58:33;3.60;99.90
14517;DHT22;7344;50.864;4.362;2023-12-04T10:01:01;3.50;99.90
14517;DHT22;7344;50.864;4.362;2023-12-04T10:03:27;3.30;99.90
14517;DHT22;7344;50.864;4.362;2023-12-04T10:05:55;3.30;99.90
14517;DHT22;7344;50.864;4.362;2023-12-04T10:08:21;3.20;99.90
14517;DHT22;7344;50.864;4.362;2023-12-04T10:10:47;3.20;99.90
14517;DHT22;7344;50.864;4.362;2023-12-04T10:13:13;3.20;99.90
14517;DHT22;7344;50.864;4.362;2023-12-04T10:15:46;3.20;99.90
14517;DHT22;7344;50.864;4.362;2023-12-04T10:18:27;3.10;99.90
14517;DHT22;7344;50.864;4.362;2023-12-04T10:20:56;3.10;99.90
14517;DHT22;7344;50.864;4.362;2023-12-04T10:23:22;3.10;99.90
14517;DHT22;7344;50.864;4.362;2023-12-04T10:25:51;3.10;99.90
14517;DHT22;7344;50.864;4.362;2023-12-04T10:28:17;3.10;99.90
14517;DHT22;7344;50.864;4.362;2023-12-04T10:30:43;3.10;99.90
14517;DHT22;7344;50.864;4.362;2023-12-04T10:33:10;3.10;99.90
14517;DHT22;7344;50.864;4.362;2023-12-04T10:35:36;3.10;99.90
14517;DHT22;7344;50.864;4.362;2023-12-04T10:38:02;3.10;99.90
14517;DHT22;7344;50.864;4.362;2023-12-04T10:40:30;3.20;99.90
14517;DHT22;7344;50.864;4.362;2023-12-04T10:45:38;3.30;99.90
14517;DHT22;7344;50.864;4.362;2023-12-04T10:48:05;3.30;99.90
14517;DHT22;7344;50.864;4.362;2023-12-04T10:50:45;3.30;99.90
14517;DHT22;7344;50.864;4.362;2023-12-04T10:53:12;3.30;99.90
14517;DHT22;7344;50.864;4.362;2023-12-04T10:55:39;3.40;99.90
14517;DHT22;7344;50.864;4.362;2023-12-04T10:58:10;3.50;99.90
14517;DHT22;7344;50.864;4.362;2023-12-04T11:00:47;3.50;99.90
14517;DHT22;7344;50.864;4.362;2023-12-04T11:03:18;3.70;99.90
14517;DHT22;7344;50.864;4.362;2023-12-04T11:05:46;3.80;99.90
14517;DHT22;7344;50.864;4.362;2023-12-04T11:08:17;3.90;99.90
14517;DHT22;7344;50.864;4.362;2023-12-04T11:11:04;4.00;99.90
14517;DHT22;7344;50.864;4.362;2023-12-04T11:13:36;4.10;99.90
14517;DHT22;7344;50.864;4.362;2023-12-04T11:16:09;4.10;99.90
14517;DHT22;7344;50.864;4.362;2023-12-04T11:18:40;4.20;99.90
14517;DHT22;7344;50.864;4.362;2023-12-04T11:21:11;4.20;99.90
14517;DHT22;7344;50.864;4.362;2023-12-04T11:23:37;4.20;99.90
14517;DHT22;7344;50.864;4.362;2023-12-04T11:26:07;4.30;99.90
14517;DHT22;7344;50.864;4.362;2023-12-04T11:28:34;4.20;99.90
14517;DHT22;7344;50.864;4.362;2023-12-04T11:31:02;4.30;99.90
14517;DHT22;7344;50.864;4.362;2023-12-04T11:33:27;4.30;99.90
14517;DHT22;7344;50.864;4.362;2023-12-04T11:36:06;4.30;99.90
14517;DHT22;7344;50.864;4.362;2023-12-04T11:38:32;4.30;99.90
14517;DHT22;7344;50.864;4.362;2023-12-04T11:40:58;4.30;99.90
14517;DHT22;7344;50.864;4.362;2023-12-04T11:43:28;4.30;99.90
14517;DHT22;7344;50.864;4.362;2023-12-04T11:46:21;4.30;99.90
14517;DHT22;7344;50.864;4.362;2023-12-04T11:48:49;4.30;99.90
14517;DHT22;7344;50.864;4.362;2023-12-04T11:54:11;4.30;99.90
14517;DHT22;7344;50.864;4.362;2023-12-04T11:56:39;4.30;99.90
14517;DHT22;7344;50.864;4.362;2023-12-04T11:59:06;4.30;99.90
14517;DHT22;7344;50.864;4.362;2023-12-04T12:01:38;4.30;99.90
14517;DHT22;7344;50.864;4.362;2023-12-04T12:04:07;4.40;99.90
14517;DHT22;7344;50.864;4.362;2023-12-04T12:06:33;4.30;99.90
14517;DHT22;7344;50.864;4.362;2023-12-04T12:08:59;4.40;99.90
14517;DHT22;7344;50.864;4.362;2023-12-04T12:11:25;4.40;99.90
14517;DHT22;7344;50.864;4.362;2023-12-04T12:13:53;4.40;99.90
14517;DHT22;7344;50.864;4.362;2023-12-04T12:16:19;4.40;99.90
14517;DHT22;7344;50.864;4.362;2023-12-04T12:18:44;4.40;99.90
14517;DHT22;7344;50.864;4.362;2023-12-04T12:21:10;4.40;99.90
14517;DHT22;7344;50.864;4.362;2023-12-04T12:23:36;4.50;99.90
14517;DHT22;7344;50.864;4.362;2023-12-04T12:26:02;4.50;99.90
14517;DHT22;7344;50.864;4.362;2023-12-04T12:28:28;4.50;99.90
14517;DHT22;7344;50.864;4.362;2023-12-04T12:30:55;4.60;99.90
14517;DHT22;7344;50.864;4.362;2023-12-04T12:33:21;4.50;99.90
14517;DHT22;7344;50.864;4.362;2023-12-04T12:35:48;4.50;99.90
14517;DHT22;7344;50.864;4.362;2023-12-04T12:38:14;4.60;99.90
14517;DHT22;7344;50.864;4.362;2023-12-04T12:40:40;4.60;99.90
14517;DHT22;7344;50.864;4.362;2023-12-04T12:43:07;4.60;99.90
14517;DHT22;7344;50.864;4.362;2023-12-04T12:45:42;4.60;99.90
14517;DHT22;7344;50.864;4.362;2023-12-04T12:48:15;4.60;99.90
14517;DHT22;7344;50.864;4.362;2023-12-04T12:50:46;4.70;99.90
14517;DHT22;7344;50.864;4.362;2023-12-04T12:53:13;4.70;99.90
14517;DHT22;7344;50.864;4.362;2023-12-04T12:55:42;4.70;99.90
14517;DHT22;7344;50.864;4.362;2023-12-04T12:58:11;4.70;99.90
14517;DHT22;7344;50.864;4.362;2023-12-04T13:00:41;4.80;99.90
14517;DHT22;7344;50.864;4.362;2023-12-04T13:03:19;4.70;99.90
14517;DHT22;7344;50.864;4.362;2023-12-04T13:05:45;4.80;99.90
14517;DHT22;7344;50.864;4.362;2023-12-04T13:08:11;4.70;99.90
14517;DHT22;7344;50.864;4.362;2023-12-04T13:10:38;4.70;99.90
14517;DHT22;7344;50.864;4.362;2023-12-04T13:13:04;4.70;99.90
14517;DHT22;7344;50.864;4.362;2023-12-04T13:15:29;4.60;99.90
14517;DHT22;7344;50.864;4.362;2023-12-04T13:17:55;4.70;99.90
14517;DHT22;7344;50.864;4.362;2023-12-04T13:20:22;4.80;99.90
14517;DHT22;7344;50.864;4.362;2023-12-04T13:22:49;4.80;99.90
14517;DHT22;7344;50.864;4.362;2023-12-04T13:25:14;4.80;99.90
14517;DHT22;7344;50.864;4.362;2023-12-04T13:27:40;4.90;99.90
14517;DHT22;7344;50.864;4.362;2023-12-04T13:30:07;4.90;99.90
14517;DHT22;7344;50.864;4.362;2023-12-04T13:32:37;4.90;99.90
14517;DHT22;7344;50.864;4.362;2023-12-04T13:35:03;4.90;99.90
14517;DHT22;7344;50.864;4.362;2023-12-04T13:37:37;4.90;99.90
14517;DHT22;7344;50.864;4.362;2023-12-04T13:40:06;5.00;99.90
14517;DHT22;7344;50.864;4.362;2023-12-04T13:42:33;4.90;99.90
14517;DHT22;7344;50.864;4.362;2023-12-04T13:45:18;4.80;99.90
14517;DHT22;7344;50.864;4.362;2023-12-04T13:47:48;4.80;99.90
14517;DHT22;7344;50.864;4.362;2023-12-04T13:50:14;4.80;99.90
14517;DHT22;7344;50.864;4.362;2023-12-04T13:52:40;4.90;99.90
14517;DHT22;7344;50.864;4.362;2023-12-04T13:55:08;4.80;99.90
14517;DHT22;7344;50.864;4.362;2023-12-04T13:57:45;4.80;99.90
14517;DHT22;7344;50.864;4.362;2023-12-04T14:00:36;4.80;99.90
14517;DHT22;7344;50.864;4.362;2023-12-04T14:03:02;4.80;99.90
14517;DHT22;7344;50.864;4.362;2023-12-04T14:05:33;4.80;99.90
14517;DHT22;7344;50.864;4.362;2023-12-04T14:07:59;4.80;99.90
14517;DHT22;7344;50.864;4.362;2023-12-04T14:10:26;4.80;99.90
14517;DHT22;7344;50.864;4.362;2023-12-04T14:12:52;4.80;99.90
14517;DHT22;7344;50.864;4.362;2023-12-04T14:15:18;4.80;99.90
14517;DHT22;7344;50.864;4.362;2023-12-04T14:17:44;4.80;99.90
14517;DHT22;7344;50.864;4.362;2023-12-04T14:20:12;4.80;99.90
14517;DHT22;7344;50.864;4.362;2023-12-04T14:22:41;4.80;99.90
14517;DHT22;7344;50.864;4.362;2023-12-04T14:25:07;4.80;99.90
14517;DHT22;7344;50.864;4.362;2023-12-04T14:27:33;4.90;99.90
14517;DHT22;7344;50.864;4.362;2023-12-04T14:29:59;4.90;99.90
14517;DHT22;7344;50.864;4.362;2023-12-04T14:32:25;4.90;99.90
14517;DHT22;7344;50.864;4.362;2023-12-04T14:34:51;4.80;99.90
14517;DHT22;7344;50.864;4.362;2023-12-04T14:37:16;4.80;99.90
14517;DHT22;7344;50.864;4.362;2023-12-04T14:39:42;4.90;99.90
14517;DHT22;7344;50.864;4.362;2023-12-04T14:42:07;4.90;99.90
14517;DHT22;7344;50.864;4.362;2023-12-04T14:44:33;5.00;99.90
14517;DHT22;7344;50.864;4.362;2023-12-04T14:46:59;4.90;99.90
14517;DHT22;7344;50.864;4.362;2023-12-04T14:49:25;5.00;99.90
14517;DHT22;7344;50.864;4.362;2023-12-04T14:51:50;5.00;99.90
14517;DHT22;7344;50.864;4.362;2023-12-04T14:54:16;5.10;99.90
14517;DHT22;7344;50.864;4.362;2023-12-04T14:57:03;5.10;99.90
14517;DHT22;7344;50.864;4.362;2023-12-04T14:59:44;5.20;99.90
14517;DHT22;7344;50.864;4.362;2023-12-04T15:02:36;5.10;99.90
14517;DHT22;7344;50.864;4.362;2023-12-04T15:05:20;5.20;99.90
14517;DHT22;7344;50.864;4.362;2023-12-04T15:08:05;5.20;99.90
14517;DHT22;7344;50.864;4.362;2023-12-04T15:10:42;5.20;99.90
14517;DHT22;7344;50.864;4.362;2023-12-04T15:13:43;5.20;99.90
14517;DHT22;7344;50.864;4.362;2023-12-04T15:16:29;5.10;99.90
14517;DHT22;7344;50.864;4.362;2023-12-04T15:19:18;5.20;99.90
14517;DHT22;7344;50.864;4.362;2023-12-04T15:21:58;5.20;99.90
14517;DHT22;7344;50.864;4.362;2023-12-04T15:24:24;5.20;99.90
14517;DHT22;7344;50.864;4.362;2023-12-04T15:26:50;5.20;99.90
14517;DHT22;7344;50.864;4.362;2023-12-04T15:29:17;5.30;99.90
14517;DHT22;7344;50.864;4.362;2023-12-04T15:31:46;5.20;99.90
14517;DHT22;7344;50.864;4.362;2023-12-04T15:34:12;5.20;99.90
14517;DHT22;7344;50.864;4.362;2023-12-04T15:36:37;5.30;99.90
14517;DHT22;7344;50.864;4.362;2023-12-04T15:39:03;5.30;99.90
14517;DHT22;7344;50.864;4.362;2023-12-04T15:41:30;5.20;99.90
14517;DHT22;7344;50.864;4.362;2023-12-04T15:43:55;5.30;99.90
14517;DHT22;7344;50.864;4.362;2023-12-04T15:46:21;5.40;99.90
14517;DHT22;7344;50.864;4.362;2023-12-04T15:48:47;5.30;99.90
14517;DHT22;7344;50.864;4.362;2023-12-04T15:51:13;5.30;99.90
14517;DHT22;7344;50.864;4.362;2023-12-04T15:53:40;5.30;99.90
14517;DHT22;7344;50.864;4.362;2023-12-04T15:56:06;5.40;99.90
14517;DHT22;7344;50.864;4.362;2023-12-04T15:58:33;5.40;99.90
14517;DHT22;7344;50.864;4.362;2023-12-04T16:01:02;5.40;99.90
14517;DHT22;7344;50.864;4.362;2023-12-04T16:03:31;5.50;99.90
14517;DHT22;7344;50.864;4.362;2023-12-04T16:05:56;5.50;99.90
14517;DHT22;7344;50.864;4.362;2023-12-04T16:08:22;5.50;99.90